Terminal Aerodrome Forecast
Issued by NWS

Home | Current Version | Previous Version | Graphics & Text | Print | Product List | Glossary On
Versions: 1 2 3 4 5 6 7 8 9 10 11 12 13 14 15 16 17 18 19
000
FTUS43 KTOP 281100
TAFMHK
TAF
KMHK 281137Z 2812/2912 19008KT P6SM -RA VCTS BKN080CB
     FM281700 19012KT P6SM FEW060 BKN120
     FM282200 17006KT P6SM VCTS BKN060CB
     FM290400 18006KT P6SM VCTS BKN050CB
      TEMPO 2907/2911 3SM -TSRA OVC040CB=

USA.gov is the U.S. government's official web portal to all federal, state and local government web resources and services.